sensor_id;sensor_type;location;lat;lon;timestamp;pressure;altitude;pressure_sealevel;temperature;humidity
35151;BME280;55720;51.972;4.624;2022-12-18T00:01:22;102191.00;;;-3.44;100.00
35151;BME280;55720;51.972;4.624;2022-12-18T00:03:48;102181.28;;;-3.45;100.00
35151;BME280;55720;51.972;4.624;2022-12-18T00:06:14;102163.94;;;-3.50;100.00
35151;BME280;55720;51.972;4.624;2022-12-18T00:08:41;102165.78;;;-3.43;100.00
35151;BME280;55720;51.972;4.624;2022-12-18T00:11:08;102171.59;;;-3.60;100.00
35151;BME280;55720;51.972;4.624;2022-12-18T00:13:34;102182.94;;;-3.44;100.00
35151;BME280;55720;51.972;4.624;2022-12-18T00:16:07;102186.03;;;-3.54;100.00
35151;BME280;55720;51.972;4.624;2022-12-18T00:18:34;102191.81;;;-3.64;100.00
35151;BME280;55720;51.972;4.624;2022-12-18T00:21:01;102190.16;;;-3.45;100.00
35151;BME280;55720;51.972;4.624;2022-12-18T00:23:28;102193.88;;;-3.39;100.00
35151;BME280;55720;51.972;4.624;2022-12-18T00:25:53;102189.13;;;-3.51;100.00
35151;BME280;55720;51.972;4.624;2022-12-18T00:28:18;102184.38;;;-3.62;100.00
35151;BME280;55720;51.972;4.624;2022-12-18T00:30:44;102159.19;;;-3.74;100.00
35151;BME280;55720;51.972;4.624;2022-12-18T00:33:09;102161.69;;;-3.66;100.00
35151;BME280;55720;51.972;4.624;2022-12-18T00:35:35;102150.94;;;-3.79;100.00
35151;BME280;55720;51.972;4.624;2022-12-18T00:38:00;102146.38;;;-3.85;100.00
35151;BME280;55720;51.972;4.624;2022-12-18T00:40:25;102132.56;;;-3.82;100.00
35151;BME280;55720;51.972;4.624;2022-12-18T00:42:50;102143.06;;;-3.87;100.00
35151;BME280;55720;51.972;4.624;2022-12-18T00:45:27;102149.50;;;-3.75;100.00
35151;BME280;55720;51.972;4.624;2022-12-18T00:47:53;102150.72;;;-3.90;100.00
35151;BME280;55720;51.972;4.624;2022-12-18T00:50:19;102147.63;;;-3.87;100.00
35151;BME280;55720;51.972;4.624;2022-12-18T00:52:44;102151.75;;;-3.98;100.00
35151;BME280;55720;51.972;4.624;2022-12-18T00:55:11;102156.28;;;-3.99;100.00
35151;BME280;55720;51.972;4.624;2022-12-18T00:57:36;102173.41;;;-4.06;100.00
35151;BME280;55720;51.972;4.624;2022-12-18T01:00:04;102179.59;;;-3.92;100.00
35151;BME280;55720;51.972;4.624;2022-12-18T01:02:30;102178.78;;;-3.93;100.00
35151;BME280;55720;51.972;4.624;2022-12-18T01:04:55;102200.66;;;-3.96;100.00
35151;BME280;55720;51.972;4.624;2022-12-18T01:07:20;102172.16;;;-3.97;100.00
35151;BME280;55720;51.972;4.624;2022-12-18T01:09:46;102194.88;;;-4.00;100.00
35151;BME280;55720;51.972;4.624;2022-12-18T01:12:11;102195.06;;;-4.01;100.00
35151;BME280;55720;51.972;4.624;2022-12-18T01:14:37;102198.78;;;-4.02;100.00
35151;BME280;55720;51.972;4.624;2022-12-18T01:17:03;102221.28;;;-3.97;100.00
35151;BME280;55720;51.972;4.624;2022-12-18T01:19:29;102227.22;;;-4.08;100.00
35151;BME280;55720;51.972;4.624;2022-12-18T01:21:54;102237.78;;;-4.06;100.00
35151;BME280;55720;51.972;4.624;2022-12-18T01:24:20;102242.97;;;-3.98;100.00
35151;BME280;55720;51.972;4.624;2022-12-18T01:26:45;102226.63;;;-4.10;100.00
35151;BME280;55720;51.972;4.624;2022-12-18T01:29:11;102242.53;;;-4.02;100.00
35151;BME280;55720;51.972;4.624;2022-12-18T01:31:36;102253.00;;;-4.20;100.00
35151;BME280;55720;51.972;4.624;2022-12-18T01:34:02;102260.66;;;-4.10;100.00
35151;BME280;55720;51.972;4.624;2022-12-18T01:36:33;102262.06;;;-4.21;100.00
35151;BME280;55720;51.972;4.624;2022-12-18T01:39:01;102284.97;;;-4.18;100.00
35151;BME280;55720;51.972;4.624;2022-12-18T01:41:29;102279.88;;;-4.07;100.00
35151;BME280;55720;51.972;4.624;2022-12-18T01:47:15;102300.25;;;-4.12;100.00
35151;BME280;55720;51.972;4.624;2022-12-18T01:49:43;102315.31;;;-4.11;100.00
35151;BME280;55720;51.972;4.624;2022-12-18T01:52:09;102312.78;;;-4.26;100.00
35151;BME280;55720;51.972;4.624;2022-12-18T01:54:34;102301.63;;;-4.29;100.00
35151;BME280;55720;51.972;4.624;2022-12-18T01:56:59;102289.41;;;-4.45;100.00
35151;BME280;55720;51.972;4.624;2022-12-18T01:59:26;102290.03;;;-4.36;100.00
35151;BME280;55720;51.972;4.624;2022-12-18T02:01:56;102278.03;;;-4.47;100.00
35151;BME280;55720;51.972;4.624;2022-12-18T02:04:24;102275.59;;;-4.42;100.00
35151;BME280;55720;51.972;4.624;2022-12-18T02:09:51;102290.72;;;-4.28;100.00
35151;BME280;55720;51.972;4.624;2022-12-18T02:12:23;102274.16;;;-4.38;100.00
35151;BME280;55720;51.972;4.624;2022-12-18T02:17:23;102288.38;;;-4.37;100.00
35151;BME280;55720;51.972;4.624;2022-12-18T02:20:33;102292.69;;;-4.43;100.00
35151;BME280;55720;51.972;4.624;2022-12-18T02:23:20;102264.88;;;-4.35;100.00
35151;BME280;55720;51.972;4.624;2022-12-18T02:26:18;102252.31;;;-4.35;100.00
35151;BME280;55720;51.972;4.624;2022-12-18T02:28:54;102262.38;;;-4.43;100.00
35151;BME280;55720;51.972;4.624;2022-12-18T02:31:25;102243.72;;;-4.65;100.00
35151;BME280;55720;51.972;4.624;2022-12-18T02:33:56;102229.31;;;-4.57;100.00
35151;BME280;55720;51.972;4.624;2022-12-18T02:36:25;102232.28;;;-4.39;100.00
35151;BME280;55720;51.972;4.624;2022-12-18T02:38:53;102245.28;;;-4.36;100.00
35151;BME280;55720;51.972;4.624;2022-12-18T02:41:29;102228.66;;;-4.66;100.00
35151;BME280;55720;51.972;4.624;2022-12-18T02:43:58;102207.28;;;-4.53;100.00
35151;BME280;55720;51.972;4.624;2022-12-18T02:46:35;102194.53;;;-4.44;100.00
35151;BME280;55720;51.972;4.624;2022-12-18T02:50:04;102193.91;;;-4.46;100.00
35151;BME280;55720;51.972;4.624;2022-12-18T02:57:21;102124.75;;;-4.70;100.00
35151;BME280;55720;51.972;4.624;2022-12-18T03:00:14;102122.09;;;-4.70;100.00
35151;BME280;55720;51.972;4.624;2022-12-18T03:05:47;102110.91;;;-4.74;100.00
35151;BME280;55720;51.972;4.624;2022-12-18T03:08:19;102095.66;;;-4.80;100.00
35151;BME280;55720;51.972;4.624;2022-12-18T03:11:07;102071.72;;;-4.88;100.00
35151;BME280;55720;51.972;4.624;2022-12-18T03:13:38;102048.84;;;-4.90;100.00
35151;BME280;55720;51.972;4.624;2022-12-18T03:16:08;102038.97;;;-4.90;100.00
35151;BME280;55720;51.972;4.624;2022-12-18T03:18:38;102038.78;;;-4.82;100.00
35151;BME280;55720;51.972;4.624;2022-12-18T03:21:08;102035.47;;;-4.77;100.00
35151;BME280;55720;51.972;4.624;2022-12-18T03:23:42;102035.25;;;-4.89;100.00
35151;BME280;55720;51.972;4.624;2022-12-18T03:26:12;102020.38;;;-4.98;100.00
35151;BME280;55720;51.972;4.624;2022-12-18T03:28:44;101997.09;;;-5.11;100.00
35151;BME280;55720;51.972;4.624;2022-12-18T03:31:13;101999.75;;;-5.11;100.00
35151;BME280;55720;51.972;4.624;2022-12-18T03:33:58;101989.19;;;-5.25;100.00
35151;BME280;55720;51.972;4.624;2022-12-18T03:36:25;101990.03;;;-5.25;100.00
35151;BME280;55720;51.972;4.624;2022-12-18T03:38:51;101992.88;;;-5.33;100.00
35151;BME280;55720;51.972;4.624;2022-12-18T03:41:38;101994.34;;;-5.24;100.00
35151;BME280;55720;51.972;4.624;2022-12-18T03:47:32;101976.81;;;-5.33;100.00
35151;BME280;55720;51.972;4.624;2022-12-18T03:50:07;101981.72;;;-5.43;100.00
35151;BME280;55720;51.972;4.624;2022-12-18T03:55:13;101981.66;;;-5.50;100.00
35151;BME280;55720;51.972;4.624;2022-12-18T03:57:39;101975.31;;;-5.42;100.00
35151;BME280;55720;51.972;4.624;2022-12-18T04:00:09;101975.13;;;-5.47;100.00
35151;BME280;55720;51.972;4.624;2022-12-18T04:02:38;101961.34;;;-5.44;100.00
35151;BME280;55720;51.972;4.624;2022-12-18T04:05:06;101985.44;;;-5.37;100.00
35151;BME280;55720;51.972;4.624;2022-12-18T04:07:33;101978.00;;;-5.42;100.00
35151;BME280;55720;51.972;4.624;2022-12-18T04:10:01;101979.03;;;-5.43;100.00
35151;BME280;55720;51.972;4.624;2022-12-18T04:12:28;101959.03;;;-5.54;100.00
35151;BME280;55720;51.972;4.624;2022-12-18T04:14:54;101958.63;;;-5.51;100.00
35151;BME280;55720;51.972;4.624;2022-12-18T04:17:19;101952.22;;;-5.50;100.00
35151;BME280;55720;51.972;4.624;2022-12-18T04:19:45;101959.22;;;-5.55;100.00
35151;BME280;55720;51.972;4.624;2022-12-18T04:22:11;101953.63;;;-5.60;100.00
35151;BME280;55720;51.972;4.624;2022-12-18T04:24:36;101922.31;;;-5.73;100.00
35151;BME280;55720;51.972;4.624;2022-12-18T04:27:02;101930.28;;;-5.86;100.00
35151;BME280;55720;51.972;4.624;2022-12-18T04:29:27;101927.38;;;-5.97;100.00
35151;BME280;55720;51.972;4.624;2022-12-18T04:31:53;101900.59;;;-6.04;100.00
35151;BME280;55720;51.972;4.624;2022-12-18T04:34:19;101895.88;;;-6.02;100.00
35151;BME280;55720;51.972;4.624;2022-12-18T04:36:45;101890.91;;;-6.05;100.00
35151;BME280;55720;51.972;4.624;2022-12-18T04:39:10;101883.06;;;-6.13;100.00
35151;BME280;55720;51.972;4.624;2022-12-18T04:41:35;101886.75;;;-6.14;100.00
35151;BME280;55720;51.972;4.624;2022-12-18T04:44:01;101874.19;;;-6.20;100.00
35151;BME280;55720;51.972;4.624;2022-12-18T04:46:26;101866.94;;;-6.26;100.00
35151;BME280;55720;51.972;4.624;2022-12-18T04:48:51;101887.25;;;-6.32;100.00
35151;BME280;55720;51.972;4.624;2022-12-18T04:51:17;101885.41;;;-6.31;100.00
35151;BME280;55720;51.972;4.624;2022-12-18T04:53:42;101879.75;;;-6.50;100.00
35151;BME280;55720;51.972;4.624;2022-12-18T04:56:10;101885.63;;;-6.61;100.00
35151;BME280;55720;51.972;4.624;2022-12-18T04:58:37;101874.06;;;-6.68;100.00
35151;BME280;55720;51.972;4.624;2022-12-18T05:01:02;101862.16;;;-6.65;100.00
35151;BME280;55720;51.972;4.624;2022-12-18T05:03:28;101872.78;;;-6.72;100.00
35151;BME280;55720;51.972;4.624;2022-12-18T05:05:53;101882.09;;;-6.89;100.00
35151;BME280;55720;51.972;4.624;2022-12-18T05:08:19;101882.59;;;-6.79;100.00
35151;BME280;55720;51.972;4.624;2022-12-18T05:10:44;101869.91;;;-6.98;100.00
35151;BME280;55720;51.972;4.624;2022-12-18T05:13:10;101891.03;;;-7.03;100.00
35151;BME280;55720;51.972;4.624;2022-12-18T05:15:35;101907.47;;;-7.21;100.00
35151;BME280;55720;51.972;4.624;2022-12-18T05:18:02;101888.91;;;-7.29;100.00
35151;BME280;55720;51.972;4.624;2022-12-18T05:20:28;101893.97;;;-7.34;100.00
35151;BME280;55720;51.972;4.624;2022-12-18T05:22:54;101888.19;;;-7.37;100.00
35151;BME280;55720;51.972;4.624;2022-12-18T05:25:19;101897.47;;;-7.33;100.00
35151;BME280;55720;51.972;4.624;2022-12-18T05:27:45;101897.03;;;-7.37;100.00
35151;BME280;55720;51.972;4.624;2022-12-18T05:30:12;101899.66;;;-7.22;100.00
35151;BME280;55720;51.972;4.624;2022-12-18T05:32:37;101900.47;;;-7.22;100.00
35151;BME280;55720;51.972;4.624;2022-12-18T05:35:04;101895.09;;;-7.07;100.00
35151;BME280;55720;51.972;4.624;2022-12-18T05:37:30;101893.19;;;-6.92;100.00
35151;BME280;55720;51.972;4.624;2022-12-18T05:39:55;101902.97;;;-6.99;100.00
35151;BME280;55720;51.972;4.624;2022-12-18T05:42:21;101899.56;;;-6.86;100.00
35151;BME280;55720;51.972;4.624;2022-12-18T05:44:46;101898.44;;;-6.77;100.00
35151;BME280;55720;51.972;4.624;2022-12-18T05:47:12;101890.22;;;-6.76;100.00
35151;BME280;55720;51.972;4.624;2022-12-18T05:49:37;101885.22;;;-6.58;100.00
35151;BME280;55720;51.972;4.624;2022-12-18T05:52:02;101888.28;;;-6.61;100.00
35151;BME280;55720;51.972;4.624;2022-12-18T05:54:28;101891.34;;;-6.64;100.00
35151;BME280;55720;51.972;4.624;2022-12-18T05:56:53;101898.88;;;-6.74;100.00
35151;BME280;55720;51.972;4.624;2022-12-18T05:59:19;101896.38;;;-6.75;100.00
35151;BME280;55720;51.972;4.624;2022-12-18T06:01:45;101906.25;;;-6.76;100.00
35151;BME280;55720;51.972;4.624;2022-12-18T06:04:11;101893.50;;;-6.80;100.00
35151;BME280;55720;51.972;4.624;2022-12-18T06:06:37;101889.38;;;-6.76;100.00
35151;BME280;55720;51.972;4.624;2022-12-18T06:09:03;101901.25;;;-6.85;100.00
35151;BME280;55720;51.972;4.624;2022-12-18T06:11:34;101904.41;;;-6.97;100.00
35151;BME280;55720;51.972;4.624;2022-12-18T06:13:59;101904.59;;;-6.98;100.00
35151;BME280;55720;51.972;4.624;2022-12-18T06:16:26;101903.09;;;-7.07;100.00
35151;BME280;55720;51.972;4.624;2022-12-18T06:18:52;101888.84;;;-6.93;100.00
35151;BME280;55720;51.972;4.624;2022-12-18T06:21:17;101888.41;;;-6.97;100.00
35151;BME280;55720;51.972;4.624;2022-12-18T06:23:42;101875.72;;;-6.94;100.00
35151;BME280;55720;51.972;4.624;2022-12-18T06:26:28;101895.53;;;-7.04;100.00
35151;BME280;55720;51.972;4.624;2022-12-18T06:28:54;101872.84;;;-6.93;100.00
35151;BME280;55720;51.972;4.624;2022-12-18T06:31:19;101896.47;;;-7.11;100.00
35151;BME280;55720;51.972;4.624;2022-12-18T06:33:44;101892.09;;;-6.98;100.00
35151;BME280;55720;51.972;4.624;2022-12-18T06:36:11;101899.03;;;-7.03;100.00
35151;BME280;55720;51.972;4.624;2022-12-18T06:38:39;101900.81;;;-7.10;100.00
35151;BME280;55720;51.972;4.624;2022-12-18T06:41:09;101895.03;;;-7.14;100.00
35151;BME280;55720;51.972;4.624;2022-12-18T06:43:35;101905.00;;;-7.22;100.00
35151;BME280;55720;51.972;4.624;2022-12-18T06:46:01;101881.25;;;-7.17;100.00
35151;BME280;55720;51.972;4.624;2022-12-18T06:48:27;101879.97;;;-7.21;100.00
35151;BME280;55720;51.972;4.624;2022-12-18T06:50:52;101884.75;;;-7.17;100.00
35151;BME280;55720;51.972;4.624;2022-12-18T06:53:17;101891.09;;;-7.18;100.00
35151;BME280;55720;51.972;4.624;2022-12-18T06:55:43;101888.97;;;-7.22;100.00
35151;BME280;55720;51.972;4.624;2022-12-18T06:58:08;101882.06;;;-7.17;100.00
35151;BME280;55720;51.972;4.624;2022-12-18T07:00:34;101874.94;;;-7.10;100.00
35151;BME280;55720;51.972;4.624;2022-12-18T07:02:59;101867.34;;;-7.13;100.00
35151;BME280;55720;51.972;4.624;2022-12-18T07:05:25;101867.91;;;-7.17;100.00
35151;BME280;55720;51.972;4.624;2022-12-18T07:07:50;101888.75;;;-7.27;100.00
35151;BME280;55720;51.972;4.624;2022-12-18T07:10:16;101876.03;;;-7.25;100.00
35151;BME280;55720;51.972;4.624;2022-12-18T07:12:41;101887.25;;;-7.30;100.00
35151;BME280;55720;51.972;4.624;2022-12-18T07:15:06;101880.75;;;-7.27;100.00
35151;BME280;55720;51.972;4.624;2022-12-18T07:17:32;101871.69;;;-7.26;100.00
35151;BME280;55720;51.972;4.624;2022-12-18T07:19:57;101872.13;;;-7.23;100.00
35151;BME280;55720;51.972;4.624;2022-12-18T07:22:24;101862.06;;;-7.27;100.00
35151;BME280;55720;51.972;4.624;2022-12-18T07:24:50;101844.00;;;-7.25;100.00
35151;BME280;55720;51.972;4.624;2022-12-18T07:27:15;101833.16;;;-7.24;100.00
35151;BME280;55720;51.972;4.624;2022-12-18T07:29:40;101830.03;;;-7.27;100.00
35151;BME280;55720;51.972;4.624;2022-12-18T07:32:06;101824.09;;;-7.23;100.00
35151;BME280;55720;51.972;4.624;2022-12-18T07:34:32;101837.66;;;-7.24;100.00
35151;BME280;55720;51.972;4.624;2022-12-18T07:36:57;101828.19;;;-7.27;100.00
35151;BME280;55720;51.972;4.624;2022-12-18T07:39:23;101823.28;;;-7.23;100.00
35151;BME280;55720;51.972;4.624;2022-12-18T07:41:48;101827.22;;;-7.19;100.00
35151;BME280;55720;51.972;4.624;2022-12-18T07:44:33;101834.47;;;-7.13;100.00
35151;BME280;55720;51.972;4.624;2022-12-18T07:46:59;101848.22;;;-7.16;100.00
35151;BME280;55720;51.972;4.624;2022-12-18T07:49:24;101853.34;;;-7.15;100.00
35151;BME280;55720;51.972;4.624;2022-12-18T07:51:49;101851.44;;;-7.00;100.00
35151;BME280;55720;51.972;4.624;2022-12-18T07:54:15;101851.44;;;-7.00;100.00
35151;BME280;55720;51.972;4.624;2022-12-18T07:56:40;101847.66;;;-7.05;100.00
35151;BME280;55720;51.972;4.624;2022-12-18T07:59:06;101844.13;;;-6.91;100.00
35151;BME280;55720;51.972;4.624;2022-12-18T08:01:31;101847.28;;;-6.81;100.00
35151;BME280;55720;51.972;4.624;2022-12-18T08:03:58;101842.97;;;-6.75;100.00
35151;BME280;55720;51.972;4.624;2022-12-18T08:06:23;101850.69;;;-6.66;100.00
35151;BME280;55720;51.972;4.624;2022-12-18T08:08:50;101836.31;;;-6.58;100.00
35151;BME280;55720;51.972;4.624;2022-12-18T08:11:16;101839.19;;;-6.60;100.00
35151;BME280;55720;51.972;4.624;2022-12-18T08:13:41;101849.22;;;-6.62;100.00
35151;BME280;55720;51.972;4.624;2022-12-18T08:16:07;101845.16;;;-6.58;100.00
35151;BME280;55720;51.972;4.624;2022-12-18T08:18:36;101850.06;;;-6.61;100.00
35151;BME280;55720;51.972;4.624;2022-12-18T08:21:16;101847.44;;;-6.55;100.00
35151;BME280;55720;51.972;4.624;2022-12-18T08:23:43;101840.91;;;-6.52;100.00
35151;BME280;55720;51.972;4.624;2022-12-18T08:26:10;101840.94;;;-6.45;100.00
35151;BME280;55720;51.972;4.624;2022-12-18T08:28:36;101839.91;;;-6.44;100.00
35151;BME280;55720;51.972;4.624;2022-12-18T08:31:01;101842.81;;;-6.39;100.00
35151;BME280;55720;51.972;4.624;2022-12-18T08:33:26;101850.66;;;-6.31;100.00
35151;BME280;55720;51.972;4.624;2022-12-18T08:35:52;101832.41;;;-6.28;100.00
35151;BME280;55720;51.972;4.624;2022-12-18T08:38:18;101843.13;;;-6.21;100.00
35151;BME280;55720;51.972;4.624;2022-12-18T08:40:43;101858.13;;;-6.20;100.00
35151;BME280;55720;51.972;4.624;2022-12-18T08:43:12;101856.56;;;-6.08;100.00
35151;BME280;55720;51.972;4.624;2022-12-18T08:45:55;101886.00;;;-6.02;100.00
35151;BME280;55720;51.972;4.624;2022-12-18T08:48:21;101886.22;;;-5.97;100.00
35151;BME280;55720;51.972;4.624;2022-12-18T08:50:54;101895.09;;;-5.89;100.00
35151;BME280;55720;51.972;4.624;2022-12-18T08:53:20;101907.66;;;-5.83;100.00
35151;BME280;55720;51.972;4.624;2022-12-18T08:55:45;101919.41;;;-5.78;100.00
35151;BME280;55720;51.972;4.624;2022-12-18T08:58:11;101916.72;;;-5.78;100.00
35151;BME280;55720;51.972;4.624;2022-12-18T09:00:36;101914.91;;;-5.71;100.00
35151;BME280;55720;51.972;4.624;2022-12-18T09:03:01;101931.19;;;-5.66;100.00
35151;BME280;55720;51.972;4.624;2022-12-18T09:05:27;101939.06;;;-5.58;100.00
35151;BME280;55720;51.972;4.624;2022-12-18T09:07:52;101911.94;;;-5.41;100.00
35151;BME280;55720;51.972;4.624;2022-12-18T09:10:17;101916.25;;;-5.47;100.00
35151;BME280;55720;51.972;4.624;2022-12-18T09:12:43;101903.91;;;-5.35;100.00
35151;BME280;55720;51.972;4.624;2022-12-18T09:15:08;101902.50;;;-5.24;100.00
35151;BME280;55720;51.972;4.624;2022-12-18T09:17:34;101901.69;;;-5.18;100.00
35151;BME280;55720;51.972;4.624;2022-12-18T09:19:59;101902.91;;;-5.21;100.00
35151;BME280;55720;51.972;4.624;2022-12-18T09:22:24;101877.38;;;-5.17;100.00
35151;BME280;55720;51.972;4.624;2022-12-18T09:24:50;101865.25;;;-5.19;100.00
35151;BME280;55720;51.972;4.624;2022-12-18T09:27:15;101877.19;;;-5.28;100.00
35151;BME280;55720;51.972;4.624;2022-12-18T09:29:40;101868.09;;;-5.27;100.00
35151;BME280;55720;51.972;4.624;2022-12-18T09:32:06;101881.91;;;-5.24;100.00
35151;BME280;55720;51.972;4.624;2022-12-18T09:34:31;101917.53;;;-5.23;100.00
35151;BME280;55720;51.972;4.624;2022-12-18T09:36:56;101907.72;;;-5.03;100.00
35151;BME280;55720;51.972;4.624;2022-12-18T09:39:22;101888.78;;;-4.82;100.00
35151;BME280;55720;51.972;4.624;2022-12-18T09:41:51;101904.19;;;-4.97;100.00
35151;BME280;55720;51.972;4.624;2022-12-18T09:44:28;101906.88;;;-4.90;100.00
35151;BME280;55720;51.972;4.624;2022-12-18T09:47:08;101919.66;;;-4.86;100.00
35151;BME280;55720;51.972;4.624;2022-12-18T09:49:40;101930.38;;;-4.86;100.00
35151;BME280;55720;51.972;4.624;2022-12-18T09:52:31;101934.31;;;-4.82;100.00
35151;BME280;55720;51.972;4.624;2022-12-18T09:55:06;101936.34;;;-4.77;100.00
35151;BME280;55720;51.972;4.624;2022-12-18T09:57:39;101933.88;;;-4.59;100.00
35151;BME280;55720;51.972;4.624;2022-12-18T10:00:15;101931.63;;;-4.69;100.00
35151;BME280;55720;51.972;4.624;2022-12-18T10:02:41;101935.31;;;-4.70;100.00
35151;BME280;55720;51.972;4.624;2022-12-18T10:05:11;101937.41;;;-4.72;100.00
35151;BME280;55720;51.972;4.624;2022-12-18T10:07:48;101934.09;;;-4.74;100.00
35151;BME280;55720;51.972;4.624;2022-12-18T10:21:18;101920.88;;;-4.29;100.00
35151;BME280;55720;51.972;4.624;2022-12-18T10:26:41;101940.69;;;-4.43;100.00
35151;BME280;55720;51.972;4.624;2022-12-18T10:29:12;101944.81;;;-4.15;100.00
35151;BME280;55720;51.972;4.624;2022-12-18T10:31:38;101952.84;;;-4.15;100.00
35151;BME280;55720;51.972;4.624;2022-12-18T10:34:03;101952.22;;;-4.10;100.00
35151;BME280;55720;51.972;4.624;2022-12-18T10:36:28;101976.16;;;-4.28;100.00
35151;BME280;55720;51.972;4.624;2022-12-18T10:39:13;101975.94;;;-4.07;100.00
35151;BME280;55720;51.972;4.624;2022-12-18T10:41:39;101990.78;;;-4.05;100.00
35151;BME280;55720;51.972;4.624;2022-12-18T10:44:21;101992.41;;;-3.90;100.00
35151;BME280;55720;51.972;4.624;2022-12-18T10:46:49;102000.88;;;-3.80;100.00
35151;BME280;55720;51.972;4.624;2022-12-18T10:49:22;102000.44;;;-3.71;100.00
35151;BME280;55720;51.972;4.624;2022-12-18T10:51:49;102028.94;;;-3.70;100.00
35151;BME280;55720;51.972;4.624;2022-12-18T10:54:17;102034.47;;;-3.65;100.00
35151;BME280;55720;51.972;4.624;2022-12-18T10:56:44;102048.53;;;-3.76;100.00
35151;BME280;55720;51.972;4.624;2022-12-18T10:59:12;102038.53;;;-3.36;100.00
35151;BME280;55720;51.972;4.624;2022-12-18T11:01:55;102048.88;;;-3.33;100.00
35151;BME280;55720;51.972;4.624;2022-12-18T11:06:59;102068.94;;;-3.42;100.00
35151;BME280;55720;51.972;4.624;2022-12-18T11:09:29;102074.91;;;-3.33;100.00
35151;BME280;55720;51.972;4.624;2022-12-18T11:11:59;102085.63;;;-3.27;100.00
35151;BME280;55720;51.972;4.624;2022-12-18T11:14:30;102094.25;;;-3.05;100.00
35151;BME280;55720;51.972;4.624;2022-12-18T11:16:58;102112.22;;;-3.06;100.00
35151;BME280;55720;51.972;4.624;2022-12-18T11:19:34;102116.16;;;-3.08;100.00
35151;BME280;55720;51.972;4.624;2022-12-18T11:22:03;102121.47;;;-2.95;100.00
35151;BME280;55720;51.972;4.624;2022-12-18T11:27:19;102131.38;;;-2.89;100.00
35151;BME280;55720;51.972;4.624;2022-12-18T11:29:44;102122.91;;;-2.86;100.00
35151;BME280;55720;51.972;4.624;2022-12-18T11:32:31;102135.53;;;-2.86;100.00
35151;BME280;55720;51.972;4.624;2022-12-18T11:35:19;102145.00;;;-2.84;100.00
35151;BME280;55720;51.972;4.624;2022-12-18T11:37:50;102159.94;;;-2.94;100.00
35151;BME280;55720;51.972;4.624;2022-12-18T11:40:41;102154.47;;;-2.75;100.00
35151;BME280;55720;51.972;4.624;2022-12-18T11:43:14;102156.59;;;-2.83;100.00
35151;BME280;55720;51.972;4.624;2022-12-18T11:45:54;102147.47;;;-2.76;100.00
35151;BME280;55720;51.972;4.624;2022-12-18T11:48:26;102150.88;;;-2.56;100.00
35151;BME280;55720;51.972;4.624;2022-12-18T11:50:54;102164.16;;;-2.67;100.00
35151;BME280;55720;51.972;4.624;2022-12-18T11:53:21;102165.63;;;-2.65;100.00
35151;BME280;55720;51.972;4.624;2022-12-18T11:56:05;102153.81;;;-2.57;100.00
35151;BME280;55720;51.972;4.624;2022-12-18T11:58:44;102173.84;;;-2.60;100.00
35151;BME280;55720;51.972;4.624;2022-12-18T12:18:23;102192.50;;;-2.65;100.00
35151;BME280;55720;51.972;4.624;2022-12-18T12:23:47;102207.69;;;-2.32;100.00
35151;BME280;55720;51.972;4.624;2022-12-18T12:29:03;102198.03;;;-2.09;100.00
35151;BME280;55720;51.972;4.624;2022-12-18T12:32:00;102199.69;;;-2.08;100.00
35151;BME280;55720;51.972;4.624;2022-12-18T12:34:53;102221.31;;;-2.27;100.00
35151;BME280;55720;51.972;4.624;2022-12-18T12:39:56;102227.19;;;-2.43;100.00
35151;BME280;55720;51.972;4.624;2022-12-18T12:45:30;102229.34;;;-2.14;100.00
35151;BME280;55720;51.972;4.624;2022-12-18T12:48:01;102240.59;;;-2.37;100.00
35151;BME280;55720;51.972;4.624;2022-12-18T12:50:28;102236.78;;;-2.16;100.00
35151;BME280;55720;51.972;4.624;2022-12-18T12:53:00;102227.25;;;-2.12;100.00
35151;BME280;55720;51.972;4.624;2022-12-18T12:55:28;102240.31;;;-2.22;100.00
35151;BME280;55720;51.972;4.624;2022-12-18T13:00:23;102238.22;;;-2.14;100.00
35151;BME280;55720;51.972;4.624;2022-12-18T13:08:03;102221.31;;;-1.89;100.00
35151;BME280;55720;51.972;4.624;2022-12-18T13:10:39;102220.75;;;-1.98;100.00
35151;BME280;55720;51.972;4.624;2022-12-18T13:13:13;102214.91;;;-1.95;100.00
35151;BME280;55720;51.972;4.624;2022-12-18T13:15:46;102222.84;;;-2.00;100.00
35151;BME280;55720;51.972;4.624;2022-12-18T13:18:20;102218.69;;;-2.03;100.00
35151;BME280;55720;51.972;4.624;2022-12-18T13:31:00;102211.09;;;-2.12;100.00
35151;BME280;55720;51.972;4.624;2022-12-18T13:38:39;102201.31;;;-2.00;100.00
35151;BME280;55720;51.972;4.624;2022-12-18T13:46:30;102183.06;;;-1.98;100.00
35151;BME280;55720;51.972;4.624;2022-12-18T13:51:41;102174.84;;;-2.03;100.00
35151;BME280;55720;51.972;4.624;2022-12-18T13:54:42;102183.28;;;-2.00;100.00
35151;BME280;55720;51.972;4.624;2022-12-18T13:57:30;102186.28;;;-2.14;100.00
35151;BME280;55720;51.972;4.624;2022-12-18T13:59:57;102181.00;;;-1.96;100.00
35151;BME280;55720;51.972;4.624;2022-12-18T14:02:25;102170.66;;;-1.99;100.00
35151;BME280;55720;51.972;4.624;2022-12-18T14:04:51;102166.97;;;-2.05;100.00
35151;BME280;55720;51.972;4.624;2022-12-18T14:07:24;102166.31;;;-2.00;100.00
35151;BME280;55720;51.972;4.624;2022-12-18T14:09:55;102164.56;;;-1.88;100.00
35151;BME280;55720;51.972;4.624;2022-12-18T14:12:25;102167.16;;;-2.00;100.00
35151;BME280;55720;51.972;4.624;2022-12-18T14:17:57;102163.31;;;-1.85;100.00
35151;BME280;55720;51.972;4.624;2022-12-18T14:20:24;102158.16;;;-1.87;100.00
35151;BME280;55720;51.972;4.624;2022-12-18T14:22:51;102162.34;;;-1.98;100.00
35151;BME280;55720;51.972;4.624;2022-12-18T14:25:20;102161.56;;;-2.05;100.00
35151;BME280;55720;51.972;4.624;2022-12-18T14:27:52;102153.78;;;-1.88;100.00
35151;BME280;55720;51.972;4.624;2022-12-18T14:35:40;102155.59;;;-2.07;100.00
35151;BME280;55720;51.972;4.624;2022-12-18T14:40:43;102150.63;;;-2.03;100.00
35151;BME280;55720;51.972;4.624;2022-12-18T14:43:11;102133.38;;;-1.95;100.00